sensor_id;sensor_type;location;lat;lon;timestamp;pressure;altitude;pressure_sealevel;temperature;humidity
75536;BME280;64119;52.070;20.804;2024-01-27T00:00:36;100260.41;;;4.85;100.00
75536;BME280;64119;52.070;20.804;2024-01-27T00:03:24;100257.63;;;4.83;100.00
75536;BME280;64119;52.070;20.804;2024-01-27T00:05:52;100268.20;;;4.82;99.93
75536;BME280;64119;52.070;20.804;2024-01-27T00:08:20;100270.98;;;4.81;99.72
75536;BME280;64119;52.070;20.804;2024-01-27T00:10:49;100282.35;;;4.81;99.83
75536;BME280;64119;52.070;20.804;2024-01-27T00:13:17;100287.42;;;4.77;99.93
75536;BME280;64119;52.070;20.804;2024-01-27T00:15:44;100293.09;;;4.75;99.98
75536;BME280;64119;52.070;20.804;2024-01-27T00:18:14;100295.73;;;4.77;99.38
75536;BME280;64119;52.070;20.804;2024-01-27T00:20:43;100302.23;;;4.75;98.67
75536;BME280;64119;52.070;20.804;2024-01-27T00:23:11;100308.97;;;4.74;96.86
75536;BME280;64119;52.070;20.804;2024-01-27T00:25:38;100318.79;;;4.72;95.90
75536;BME280;64119;52.070;20.804;2024-01-27T00:28:06;100317.48;;;4.71;95.60
75536;BME280;64119;52.070;20.804;2024-01-27T00:30:34;100328.73;;;4.69;95.86
75536;BME280;64119;52.070;20.804;2024-01-27T00:33:02;100338.20;;;4.65;96.31
75536;BME280;64119;52.070;20.804;2024-01-27T00:35:30;100336.95;;;4.62;96.49
75536;BME280;64119;52.070;20.804;2024-01-27T00:37:58;100339.91;;;4.59;96.73
75536;BME280;64119;52.070;20.804;2024-01-27T00:40:26;100339.79;;;4.56;96.53
75536;BME280;64119;52.070;20.804;2024-01-27T00:42:54;100345.92;;;4.55;96.34
75536;BME280;64119;52.070;20.804;2024-01-27T00:45:22;100350.00;;;4.52;96.42
75536;BME280;64119;52.070;20.804;2024-01-27T00:47:50;100358.66;;;4.50;96.02
75536;BME280;64119;52.070;20.804;2024-01-27T00:50:18;100369.76;;;4.51;95.70
75536;BME280;64119;52.070;20.804;2024-01-27T00:52:46;100371.90;;;4.49;95.34
75536;BME280;64119;52.070;20.804;2024-01-27T00:55:14;100374.77;;;4.48;95.35
75536;BME280;64119;52.070;20.804;2024-01-27T00:57:42;100378.01;;;4.46;95.23
75536;BME280;64119;52.070;20.804;2024-01-27T01:00:10;100382.23;;;4.45;94.65
75536;BME280;64119;52.070;20.804;2024-01-27T01:02:39;100383.52;;;4.43;94.67
75536;BME280;64119;52.070;20.804;2024-01-27T01:05:08;100389.23;;;4.42;93.95
75536;BME280;64119;52.070;20.804;2024-01-27T01:07:36;100394.80;;;4.39;93.99
75536;BME280;64119;52.070;20.804;2024-01-27T01:10:04;100395.04;;;4.36;94.23
75536;BME280;64119;52.070;20.804;2024-01-27T01:12:32;100398.69;;;4.33;94.35
75536;BME280;64119;52.070;20.804;2024-01-27T01:15:00;100397.68;;;4.34;93.62
75536;BME280;64119;52.070;20.804;2024-01-27T01:17:28;100407.39;;;4.31;93.86
75536;BME280;64119;52.070;20.804;2024-01-27T01:19:56;100408.25;;;4.28;94.00
75536;BME280;64119;52.070;20.804;2024-01-27T01:22:24;100419.71;;;4.26;94.48
75536;BME280;64119;52.070;20.804;2024-01-27T01:24:52;100417.88;;;4.21;94.60
75536;BME280;64119;52.070;20.804;2024-01-27T01:27:20;100423.65;;;4.21;94.65
75536;BME280;64119;52.070;20.804;2024-01-27T01:29:48;100424.35;;;4.19;94.77
75536;BME280;64119;52.070;20.804;2024-01-27T01:32:16;100426.63;;;4.17;94.83
75536;BME280;64119;52.070;20.804;2024-01-27T01:34:46;100422.59;;;4.17;94.44
75536;BME280;64119;52.070;20.804;2024-01-27T01:37:13;100428.26;;;4.17;94.25
75536;BME280;64119;52.070;20.804;2024-01-27T01:39:41;100431.75;;;4.15;94.26
75536;BME280;64119;52.070;20.804;2024-01-27T01:42:09;100435.23;;;4.15;94.15
75536;BME280;64119;52.070;20.804;2024-01-27T01:44:37;100437.73;;;4.15;94.00
75536;BME280;64119;52.070;20.804;2024-01-27T01:47:04;100439.52;;;4.14;93.83
75536;BME280;64119;52.070;20.804;2024-01-27T01:49:33;100442.02;;;4.12;93.72
75536;BME280;64119;52.070;20.804;2024-01-27T01:52:01;100440.27;;;4.10;94.03
75536;BME280;64119;52.070;20.804;2024-01-27T01:54:29;100437.77;;;4.09;93.91
75536;BME280;64119;52.070;20.804;2024-01-27T01:56:58;100438.36;;;4.08;93.92
75536;BME280;64119;52.070;20.804;2024-01-27T01:59:26;100437.43;;;4.05;93.94
75536;BME280;64119;52.070;20.804;2024-01-27T02:01:55;100443.55;;;4.03;93.83
75536;BME280;64119;52.070;20.804;2024-01-27T02:04:23;100443.73;;;4.02;93.68
75536;BME280;64119;52.070;20.804;2024-01-27T02:06:50;100447.09;;;4.02;93.86
75536;BME280;64119;52.070;20.804;2024-01-27T02:09:18;100450.33;;;4.02;93.72
75536;BME280;64119;52.070;20.804;2024-01-27T02:11:46;100444.98;;;4.00;93.96
75536;BME280;64119;52.070;20.804;2024-01-27T02:14:14;100451.94;;;3.99;94.09
75536;BME280;64119;52.070;20.804;2024-01-27T02:16:42;100450.45;;;4.00;93.70
75536;BME280;64119;52.070;20.804;2024-01-27T02:19:11;100454.28;;;4.00;93.20
75536;BME280;64119;52.070;20.804;2024-01-27T02:21:39;100459.70;;;3.99;92.90
75536;BME280;64119;52.070;20.804;2024-01-27T02:24:07;100462.91;;;3.98;93.20
75536;BME280;64119;52.070;20.804;2024-01-27T02:26:35;100464.30;;;3.96;93.17
75536;BME280;64119;52.070;20.804;2024-01-27T02:29:03;100469.11;;;3.95;93.17
75536;BME280;64119;52.070;20.804;2024-01-27T02:31:31;100468.59;;;3.93;93.09
75536;BME280;64119;52.070;20.804;2024-01-27T02:33:59;100467.22;;;3.89;93.09
75536;BME280;64119;52.070;20.804;2024-01-27T02:36:27;100465.25;;;3.92;93.29
75536;BME280;64119;52.070;20.804;2024-01-27T02:38:55;100465.26;;;3.90;93.45
75536;BME280;64119;52.070;20.804;2024-01-27T02:41:22;100467.40;;;3.91;92.65
75536;BME280;64119;52.070;20.804;2024-01-27T02:43:50;100469.15;;;3.89;92.92
75536;BME280;64119;52.070;20.804;2024-01-27T02:46:18;100468.20;;;3.88;92.94
75536;BME280;64119;52.070;20.804;2024-01-27T02:48:46;100457.28;;;3.87;92.16
75536;BME280;64119;52.070;20.804;2024-01-27T02:51:19;100464.23;;;3.88;92.31
75536;BME280;64119;52.070;20.804;2024-01-27T02:53:48;100464.59;;;3.86;91.91
75536;BME280;64119;52.070;20.804;2024-01-27T02:56:16;100469.85;;;3.86;91.57
75536;BME280;64119;52.070;20.804;2024-01-27T02:58:44;100472.23;;;3.86;91.94
75536;BME280;64119;52.070;20.804;2024-01-27T03:01:12;100469.16;;;3.86;91.06
75536;BME280;64119;52.070;20.804;2024-01-27T03:03:39;100474.46;;;3.87;90.73
75536;BME280;64119;52.070;20.804;2024-01-27T03:06:08;100476.07;;;3.87;90.27
75536;BME280;64119;52.070;20.804;2024-01-27T03:08:36;100481.08;;;3.87;90.93
75536;BME280;64119;52.070;20.804;2024-01-27T03:11:04;100484.23;;;3.87;91.00
75536;BME280;64119;52.070;20.804;2024-01-27T03:13:31;100484.10;;;3.89;90.13
75536;BME280;64119;52.070;20.804;2024-01-27T03:15:59;100487.14;;;3.88;90.54
75536;BME280;64119;52.070;20.804;2024-01-27T03:18:27;100489.34;;;3.89;90.52
75536;BME280;64119;52.070;20.804;2024-01-27T03:20:55;100488.80;;;3.89;89.65
75536;BME280;64119;52.070;20.804;2024-01-27T03:23:23;100486.81;;;3.90;89.40
75536;BME280;64119;52.070;20.804;2024-01-27T03:25:52;100489.20;;;3.90;89.92
75536;BME280;64119;52.070;20.804;2024-01-27T03:28:21;100489.36;;;3.90;89.48
75536;BME280;64119;52.070;20.804;2024-01-27T03:30:48;100492.96;;;3.91;89.38
75536;BME280;64119;52.070;20.804;2024-01-27T03:33:16;100491.81;;;3.92;89.21
75536;BME280;64119;52.070;20.804;2024-01-27T03:35:44;100498.64;;;3.92;88.75
75536;BME280;64119;52.070;20.804;2024-01-27T03:38:12;100498.29;;;3.92;88.90
75536;BME280;64119;52.070;20.804;2024-01-27T03:40:40;100500.48;;;3.93;88.76
75536;BME280;64119;52.070;20.804;2024-01-27T03:43:08;100497.52;;;3.93;89.04
75536;BME280;64119;52.070;20.804;2024-01-27T03:45:35;100502.68;;;3.92;89.44
75536;BME280;64119;52.070;20.804;2024-01-27T03:48:04;100503.52;;;3.91;88.82
75536;BME280;64119;52.070;20.804;2024-01-27T03:50:32;100513.92;;;3.89;89.42
75536;BME280;64119;52.070;20.804;2024-01-27T03:52:59;100514.70;;;3.90;88.81
75536;BME280;64119;52.070;20.804;2024-01-27T03:55:27;100517.77;;;3.91;89.18
75536;BME280;64119;52.070;20.804;2024-01-27T03:57:55;100520.69;;;3.92;89.54
75536;BME280;64119;52.070;20.804;2024-01-27T04:00:23;100520.79;;;3.93;89.03
75536;BME280;64119;52.070;20.804;2024-01-27T04:02:50;100523.48;;;3.92;89.37
75536;BME280;64119;52.070;20.804;2024-01-27T04:05:18;100523.31;;;3.94;88.94
75536;BME280;64119;52.070;20.804;2024-01-27T04:07:46;100522.39;;;3.94;88.90
75536;BME280;64119;52.070;20.804;2024-01-27T04:10:14;100521.16;;;3.93;88.89
75536;BME280;64119;52.070;20.804;2024-01-27T04:12:42;100519.75;;;3.93;88.92
75536;BME280;64119;52.070;20.804;2024-01-27T04:15:11;100522.89;;;3.93;89.04
75536;BME280;64119;52.070;20.804;2024-01-27T04:17:39;100522.92;;;3.92;88.58
75536;BME280;64119;52.070;20.804;2024-01-27T04:20:09;100525.05;;;3.92;88.23
75536;BME280;64119;52.070;20.804;2024-01-27T04:22:37;100526.54;;;3.93;88.89
75536;BME280;64119;52.070;20.804;2024-01-27T04:25:05;100516.83;;;3.90;88.74
75536;BME280;64119;52.070;20.804;2024-01-27T04:27:37;100520.60;;;3.93;88.17
75536;BME280;64119;52.070;20.804;2024-01-27T04:30:11;100519.61;;;3.94;88.05
75536;BME280;64119;52.070;20.804;2024-01-27T04:32:39;100521.45;;;3.95;87.41
75536;BME280;64119;52.070;20.804;2024-01-27T04:35:11;100522.67;;;3.95;87.64
75536;BME280;64119;52.070;20.804;2024-01-27T04:37:39;100523.65;;;3.97;87.75
75536;BME280;64119;52.070;20.804;2024-01-27T04:40:07;100529.98;;;3.97;87.86
75536;BME280;64119;52.070;20.804;2024-01-27T04:42:37;100533.60;;;3.98;87.72
75536;BME280;64119;52.070;20.804;2024-01-27T04:45:06;100534.41;;;3.97;88.01
75536;BME280;64119;52.070;20.804;2024-01-27T04:47:34;100532.50;;;3.95;88.07
75536;BME280;64119;52.070;20.804;2024-01-27T04:50:02;100537.35;;;3.93;88.23
75536;BME280;64119;52.070;20.804;2024-01-27T04:52:31;100542.25;;;3.95;88.14
75536;BME280;64119;52.070;20.804;2024-01-27T04:54:59;100539.67;;;3.96;87.54
75536;BME280;64119;52.070;20.804;2024-01-27T04:57:27;100537.40;;;3.93;87.96
75536;BME280;64119;52.070;20.804;2024-01-27T04:59:55;100533.63;;;3.92;87.72
75536;BME280;64119;52.070;20.804;2024-01-27T05:02:23;100538.35;;;3.90;87.77
75536;BME280;64119;52.070;20.804;2024-01-27T05:04:51;100546.42;;;3.88;87.72
75536;BME280;64119;52.070;20.804;2024-01-27T05:07:18;100545.20;;;3.86;87.98
75536;BME280;64119;52.070;20.804;2024-01-27T05:09:46;100545.90;;;3.84;88.15
75536;BME280;64119;52.070;20.804;2024-01-27T05:12:14;100549.98;;;3.84;88.15
75536;BME280;64119;52.070;20.804;2024-01-27T05:14:44;100553.78;;;3.82;87.93
75536;BME280;64119;52.070;20.804;2024-01-27T05:17:13;100552.80;;;3.82;87.56
75536;BME280;64119;52.070;20.804;2024-01-27T05:19:40;100553.19;;;3.81;87.78
75536;BME280;64119;52.070;20.804;2024-01-27T05:22:08;100554.05;;;3.81;87.66
75536;BME280;64119;52.070;20.804;2024-01-27T05:24:36;100556.70;;;3.81;87.79
75536;BME280;64119;52.070;20.804;2024-01-27T05:27:04;100554.83;;;3.81;88.33
75536;BME280;64119;52.070;20.804;2024-01-27T05:29:32;100555.35;;;3.81;88.09
75536;BME280;64119;52.070;20.804;2024-01-27T05:32:00;100549.52;;;3.79;88.11
75536;BME280;64119;52.070;20.804;2024-01-27T05:34:28;100548.86;;;3.79;88.26
75536;BME280;64119;52.070;20.804;2024-01-27T05:36:56;100547.17;;;3.78;88.32
75536;BME280;64119;52.070;20.804;2024-01-27T05:39:23;100542.02;;;3.75;88.52
75536;BME280;64119;52.070;20.804;2024-01-27T05:41:51;100543.38;;;3.74;88.72
75536;BME280;64119;52.070;20.804;2024-01-27T05:44:19;100542.55;;;3.74;88.41
75536;BME280;64119;52.070;20.804;2024-01-27T05:46:47;100537.65;;;3.73;88.25
75536;BME280;64119;52.070;20.804;2024-01-27T05:49:15;100538.13;;;3.74;87.58
75536;BME280;64119;52.070;20.804;2024-01-27T05:51:43;100534.52;;;3.77;86.52
75536;BME280;64119;52.070;20.804;2024-01-27T05:54:11;100538.70;;;3.79;87.02
75536;BME280;64119;52.070;20.804;2024-01-27T05:56:44;100536.62;;;3.81;87.11
75536;BME280;64119;52.070;20.804;2024-01-27T05:59:12;100540.38;;;3.83;86.69
75536;BME280;64119;52.070;20.804;2024-01-27T06:01:39;100538.60;;;3.84;86.69
75536;BME280;64119;52.070;20.804;2024-01-27T06:04:09;100535.45;;;3.84;86.62
75536;BME280;64119;52.070;20.804;2024-01-27T06:06:40;100543.05;;;3.83;86.92
75536;BME280;64119;52.070;20.804;2024-01-27T06:09:08;100538.83;;;3.83;86.61
75536;BME280;64119;52.070;20.804;2024-01-27T06:11:39;100544.27;;;3.83;86.34
75536;BME280;64119;52.070;20.804;2024-01-27T06:14:07;100546.45;;;3.82;86.57
75536;BME280;64119;52.070;20.804;2024-01-27T06:16:35;100547.77;;;3.81;86.84
75536;BME280;64119;52.070;20.804;2024-01-27T06:19:03;100553.61;;;3.80;86.80
75536;BME280;64119;52.070;20.804;2024-01-27T06:21:31;100552.52;;;3.75;86.94
75536;BME280;64119;52.070;20.804;2024-01-27T06:23:59;100551.30;;;3.71;87.48
75536;BME280;64119;52.070;20.804;2024-01-27T06:26:27;100559.36;;;3.69;87.71
75536;BME280;64119;52.070;20.804;2024-01-27T06:28:55;100562.55;;;3.65;87.97
75536;BME280;64119;52.070;20.804;2024-01-27T06:31:23;100565.10;;;3.61;88.04
75536;BME280;64119;52.070;20.804;2024-01-27T06:33:50;100567.14;;;3.57;88.20
75536;BME280;64119;52.070;20.804;2024-01-27T06:36:18;100567.23;;;3.53;88.61
75536;BME280;64119;52.070;20.804;2024-01-27T06:38:46;100569.37;;;3.48;89.08
75536;BME280;64119;52.070;20.804;2024-01-27T06:41:14;100566.21;;;3.42;89.71
75536;BME280;64119;52.070;20.804;2024-01-27T06:43:42;100566.61;;;3.38;89.79
75536;BME280;64119;52.070;20.804;2024-01-27T06:46:10;100570.64;;;3.36;89.49
75536;BME280;64119;52.070;20.804;2024-01-27T06:48:38;100578.96;;;3.33;90.07
75536;BME280;64119;52.070;20.804;2024-01-27T06:51:06;100581.39;;;3.29;89.95
75536;BME280;64119;52.070;20.804;2024-01-27T06:53:34;100587.27;;;3.24;90.82
75536;BME280;64119;52.070;20.804;2024-01-27T06:56:02;100590.98;;;3.20;91.01
75536;BME280;64119;52.070;20.804;2024-01-27T06:58:30;100586.52;;;3.17;91.43
75536;BME280;64119;52.070;20.804;2024-01-27T07:00:57;100587.52;;;3.12;91.28
75536;BME280;64119;52.070;20.804;2024-01-27T07:03:25;100590.70;;;3.09;91.11
75536;BME280;64119;52.070;20.804;2024-01-27T07:05:54;100589.44;;;3.06;91.33
75536;BME280;64119;52.070;20.804;2024-01-27T07:08:22;100589.21;;;3.04;91.83
75536;BME280;64119;52.070;20.804;2024-01-27T07:10:50;100596.30;;;3.01;92.28
75536;BME280;64119;52.070;20.804;2024-01-27T07:13:17;100595.28;;;2.99;92.57
75536;BME280;64119;52.070;20.804;2024-01-27T07:15:45;100596.85;;;2.97;92.87
75536;BME280;64119;52.070;20.804;2024-01-27T07:18:13;100598.68;;;2.96;93.54
75536;BME280;64119;52.070;20.804;2024-01-27T07:20:43;100603.86;;;2.95;93.70
75536;BME280;64119;52.070;20.804;2024-01-27T07:23:10;100601.38;;;2.93;93.48
75536;BME280;64119;52.070;20.804;2024-01-27T07:25:38;100606.15;;;2.91;93.48
75536;BME280;64119;52.070;20.804;2024-01-27T07:28:06;100606.91;;;2.90;93.56
75536;BME280;64119;52.070;20.804;2024-01-27T07:30:33;100606.70;;;2.87;94.90
75536;BME280;64119;52.070;20.804;2024-01-27T07:33:01;100607.77;;;2.84;94.14
75536;BME280;64119;52.070;20.804;2024-01-27T07:35:30;100612.16;;;2.80;96.16
75536;BME280;64119;52.070;20.804;2024-01-27T07:37:59;100615.00;;;2.76;95.54
75536;BME280;64119;52.070;20.804;2024-01-27T07:40:27;100613.51;;;2.75;95.04
75536;BME280;64119;52.070;20.804;2024-01-27T07:42:54;100614.38;;;2.75;94.81
75536;BME280;64119;52.070;20.804;2024-01-27T07:45:22;100618.29;;;2.72;95.55
75536;BME280;64119;52.070;20.804;2024-01-27T07:47:50;100618.18;;;2.71;95.31
75536;BME280;64119;52.070;20.804;2024-01-27T07:50:18;100622.75;;;2.71;94.91
75536;BME280;64119;52.070;20.804;2024-01-27T07:52:47;100627.44;;;2.71;95.68
75536;BME280;64119;52.070;20.804;2024-01-27T07:55:14;100622.00;;;2.69;96.49
75536;BME280;64119;52.070;20.804;2024-01-27T07:57:43;100619.69;;;2.72;95.57
75536;BME280;64119;52.070;20.804;2024-01-27T08:00:11;100623.80;;;2.73;96.48
75536;BME280;64119;52.070;20.804;2024-01-27T08:02:39;100621.63;;;2.74;96.32
75536;BME280;64119;52.070;20.804;2024-01-27T08:05:07;100620.30;;;2.73;96.57
75536;BME280;64119;52.070;20.804;2024-01-27T08:07:36;100616.95;;;2.73;96.47
75536;BME280;64119;52.070;20.804;2024-01-27T08:10:04;100620.86;;;2.74;96.47
75536;BME280;64119;52.070;20.804;2024-01-27T08:12:32;100620.91;;;2.76;96.22
75536;BME280;64119;52.070;20.804;2024-01-27T08:15:01;100622.70;;;2.78;96.39
75536;BME280;64119;52.070;20.804;2024-01-27T08:17:29;100625.54;;;2.77;96.93
75536;BME280;64119;52.070;20.804;2024-01-27T08:19:57;100629.36;;;2.75;96.54
75536;BME280;64119;52.070;20.804;2024-01-27T08:22:25;100627.89;;;2.76;97.05
75536;BME280;64119;52.070;20.804;2024-01-27T08:24:52;100627.27;;;2.75;97.28
75536;BME280;64119;52.070;20.804;2024-01-27T08:27:20;100627.96;;;2.75;97.07
75536;BME280;64119;52.070;20.804;2024-01-27T08:29:48;100630.74;;;2.75;96.83
75536;BME280;64119;52.070;20.804;2024-01-27T08:32:16;100634.33;;;2.76;98.53
75536;BME280;64119;52.070;20.804;2024-01-27T08:34:44;100639.41;;;2.78;97.65
75536;BME280;64119;52.070;20.804;2024-01-27T08:37:18;100643.29;;;2.80;97.16
75536;BME280;64119;52.070;20.804;2024-01-27T08:39:46;100640.92;;;2.83;98.60
75536;BME280;64119;52.070;20.804;2024-01-27T08:42:14;100642.80;;;2.85;98.23
75536;BME280;64119;52.070;20.804;2024-01-27T08:44:42;100644.20;;;2.89;97.73
75536;BME280;64119;52.070;20.804;2024-01-27T08:47:10;100646.69;;;2.93;98.11
75536;BME280;64119;52.070;20.804;2024-01-27T08:49:38;100646.91;;;2.96;97.75
75536;BME280;64119;52.070;20.804;2024-01-27T08:52:06;100646.73;;;2.98;98.63
75536;BME280;64119;52.070;20.804;2024-01-27T08:54:34;100649.06;;;3.00;99.51
75536;BME280;64119;52.070;20.804;2024-01-27T08:57:02;100653.32;;;3.02;98.67
75536;BME280;64119;52.070;20.804;2024-01-27T08:59:30;100655.82;;;3.00;98.41
75536;BME280;64119;52.070;20.804;2024-01-27T09:01:58;100659.52;;;2.98;98.23
75536;BME280;64119;52.070;20.804;2024-01-27T09:04:26;100663.67;;;3.00;98.62
75536;BME280;64119;52.070;20.804;2024-01-27T09:06:54;100674.83;;;2.99;98.71
75536;BME280;64119;52.070;20.804;2024-01-27T09:09:22;100674.61;;;2.95;99.41
75536;BME280;64119;52.070;20.804;2024-01-27T09:11:50;100680.54;;;2.95;98.92
75536;BME280;64119;52.070;20.804;2024-01-27T09:14:18;100682.79;;;2.95;98.50
75536;BME280;64119;52.070;20.804;2024-01-27T09:16:45;100683.11;;;2.94;99.31
75536;BME280;64119;52.070;20.804;2024-01-27T09:19:14;100688.25;;;2.93;99.63
75536;BME280;64119;52.070;20.804;2024-01-27T09:21:43;100695.54;;;2.93;98.93
75536;BME280;64119;52.070;20.804;2024-01-27T09:24:10;100694.67;;;2.91;99.76
75536;BME280;64119;52.070;20.804;2024-01-27T09:26:42;100699.23;;;2.93;99.85
75536;BME280;64119;52.070;20.804;2024-01-27T09:29:10;100702.48;;;2.92;99.97
75536;BME280;64119;52.070;20.804;2024-01-27T09:31:37;100705.89;;;2.91;99.99
75536;BME280;64119;52.070;20.804;2024-01-27T09:34:05;100708.51;;;2.89;99.95
75536;BME280;64119;52.070;20.804;2024-01-27T09:36:33;100707.90;;;2.90;99.99
75536;BME280;64119;52.070;20.804;2024-01-27T09:39:01;100708.60;;;2.88;100.00
75536;BME280;64119;52.070;20.804;2024-01-27T09:41:31;100716.95;;;2.88;100.00
75536;BME280;64119;52.070;20.804;2024-01-27T09:44:03;100714.39;;;2.89;100.00
75536;BME280;64119;52.070;20.804;2024-01-27T09:46:31;100717.16;;;2.86;100.00
75536;BME280;64119;52.070;20.804;2024-01-27T09:49:00;100721.24;;;2.87;100.00
75536;BME280;64119;52.070;20.804;2024-01-27T09:51:30;100723.77;;;2.86;100.00
75536;BME280;64119;52.070;20.804;2024-01-27T09:53:58;100726.10;;;2.88;100.00
75536;BME280;64119;52.070;20.804;2024-01-27T09:56:26;100728.59;;;2.89;100.00
75536;BME280;64119;52.070;20.804;2024-01-27T09:58:54;100728.59;;;2.89;100.00
75536;BME280;64119;52.070;20.804;2024-01-27T10:01:24;100729.70;;;2.92;100.00
75536;BME280;64119;52.070;20.804;2024-01-27T10:03:54;100734.10;;;2.94;100.00
75536;BME280;64119;52.070;20.804;2024-01-27T10:06:23;100736.55;;;2.94;100.00
75536;BME280;64119;52.070;20.804;2024-01-27T10:08:54;100741.05;;;2.94;100.00
75536;BME280;64119;52.070;20.804;2024-01-27T10:11:23;100744.43;;;2.93;100.00
75536;BME280;64119;52.070;20.804;2024-01-27T10:13:55;100744.77;;;2.94;100.00
75536;BME280;64119;52.070;20.804;2024-01-27T10:16:26;100747.16;;;2.92;100.00
75536;BME280;64119;52.070;20.804;2024-01-27T10:19:00;100751.84;;;2.93;100.00
75536;BME280;64119;52.070;20.804;2024-01-27T10:21:29;100749.60;;;2.96;100.00
75536;BME280;64119;52.070;20.804;2024-01-27T10:23:57;100757.41;;;2.99;100.00
75536;BME280;64119;52.070;20.804;2024-01-27T10:26:25;100764.38;;;3.01;100.00
75536;BME280;64119;52.070;20.804;2024-01-27T10:28:54;100763.80;;;3.04;100.00
75536;BME280;64119;52.070;20.804;2024-01-27T10:31:27;100770.68;;;3.05;100.00
75536;BME280;64119;52.070;20.804;2024-01-27T10:33:56;100774.66;;;3.06;100.00
75536;BME280;64119;52.070;20.804;2024-01-27T10:36:25;100774.01;;;3.07;100.00
75536;BME280;64119;52.070;20.804;2024-01-27T10:38:55;100776.05;;;3.08;100.00
75536;BME280;64119;52.070;20.804;2024-01-27T10:41:24;100780.38;;;3.08;100.00
75536;BME280;64119;52.070;20.804;2024-01-27T10:43:54;100783.19;;;3.08;100.00
75536;BME280;64119;52.070;20.804;2024-01-27T10:46:25;100788.52;;;3.09;100.00
75536;BME280;64119;52.070;20.804;2024-01-27T10:48:54;100792.86;;;3.09;100.00
75536;BME280;64119;52.070;20.804;2024-01-27T10:51:30;100796.75;;;3.11;100.00
75536;BME280;64119;52.070;20.804;2024-01-27T10:54:02;100801.45;;;3.11;100.00
75536;BME280;64119;52.070;20.804;2024-01-27T10:56:32;100803.73;;;3.11;100.00
75536;BME280;64119;52.070;20.804;2024-01-27T10:59:01;100801.55;;;3.12;100.00
75536;BME280;64119;52.070;20.804;2024-01-27T11:01:31;100802.58;;;3.12;100.00
75536;BME280;64119;52.070;20.804;2024-01-27T11:04:00;100813.89;;;3.10;100.00
75536;BME280;64119;52.070;20.804;2024-01-27T11:06:31;100821.50;;;3.14;100.00
75536;BME280;64119;52.070;20.804;2024-01-27T11:09:01;100818.75;;;3.13;100.00
75536;BME280;64119;52.070;20.804;2024-01-27T11:11:34;100822.54;;;3.10;100.00
75536;BME280;64119;52.070;20.804;2024-01-27T11:14:02;100826.83;;;3.11;100.00
75536;BME280;64119;52.070;20.804;2024-01-27T11:16:30;100832.52;;;3.11;100.00
75536;BME280;64119;52.070;20.804;2024-01-27T11:18:58;100837.95;;;3.11;100.00
75536;BME280;64119;52.070;20.804;2024-01-27T11:21:26;100846.04;;;3.11;100.00
75536;BME280;64119;52.070;20.804;2024-01-27T11:23:54;100851.38;;;3.07;100.00
75536;BME280;64119;52.070;20.804;2024-01-27T11:26:23;100849.68;;;3.07;100.00
75536;BME280;64119;52.070;20.804;2024-01-27T11:28:51;100860.39;;;3.04;100.00
75536;BME280;64119;52.070;20.804;2024-01-27T11:31:20;100864.39;;;3.03;100.00
75536;BME280;64119;52.070;20.804;2024-01-27T11:33:50;100871.13;;;2.99;100.00
75536;BME280;64119;52.070;20.804;2024-01-27T11:36:22;100879.77;;;2.96;100.00
75536;BME280;64119;52.070;20.804;2024-01-27T11:38:52;100885.48;;;2.95;100.00
75536;BME280;64119;52.070;20.804;2024-01-27T11:41:25;100886.16;;;2.93;100.00
75536;BME280;64119;52.070;20.804;2024-01-27T11:43:54;100891.80;;;2.90;100.00
75536;BME280;64119;52.070;20.804;2024-01-27T11:46:23;100900.40;;;2.90;100.00
75536;BME280;64119;52.070;20.804;2024-01-27T11:48:51;100906.20;;;2.87;100.00
75536;BME280;64119;52.070;20.804;2024-01-27T11:51:19;100909.25;;;2.84;100.00
75536;BME280;64119;52.070;20.804;2024-01-27T11:53:47;100913.22;;;2.81;100.00
75536;BME280;64119;52.070;20.804;2024-01-27T11:56:15;100915.48;;;2.76;100.00
75536;BME280;64119;52.070;20.804;2024-01-27T11:58:47;100925.27;;;2.74;100.00
75536;BME280;64119;52.070;20.804;2024-01-27T12:01:16;100927.46;;;2.71;100.00
75536;BME280;64119;52.070;20.804;2024-01-27T12:03:44;100933.19;;;2.71;100.00
75536;BME280;64119;52.070;20.804;2024-01-27T12:06:13;100938.14;;;2.70;100.00
75536;BME280;64119;52.070;20.804;2024-01-27T12:08:43;100943.37;;;2.68;100.00
75536;BME280;64119;52.070;20.804;2024-01-27T12:11:16;100948.35;;;2.67;100.00
75536;BME280;64119;52.070;20.804;2024-01-27T12:13:52;100951.89;;;2.66;100.00
75536;BME280;64119;52.070;20.804;2024-01-27T12:16:22;100952.70;;;2.65;100.00
75536;BME280;64119;52.070;20.804;2024-01-27T12:18:53;100959.06;;;2.66;100.00
75536;BME280;64119;52.070;20.804;2024-01-27T12:21:24;100962.11;;;2.68;100.00
75536;BME280;64119;52.070;20.804;2024-01-27T12:23:54;100967.87;;;2.70;100.00
75536;BME280;64119;52.070;20.804;2024-01-27T12:26:26;100974.15;;;2.70;100.00
75536;BME280;64119;52.070;20.804;2024-01-27T12:28:55;100981.17;;;2.72;100.00
75536;BME280;64119;52.070;20.804;2024-01-27T12:31:26;100990.15;;;2.73;100.00
75536;BME280;64119;52.070;20.804;2024-01-27T12:33:56;100991.93;;;2.75;100.00
75536;BME280;64119;52.070;20.804;2024-01-27T12:36:25;100995.94;;;2.75;100.00
75536;BME280;64119;52.070;20.804;2024-01-27T12:38:53;101002.67;;;2.76;100.00
75536;BME280;64119;52.070;20.804;2024-01-27T12:41:22;101004.27;;;2.78;100.00
75536;BME280;64119;52.070;20.804;2024-01-27T12:43:50;101014.87;;;2.76;100.00
75536;BME280;64119;52.070;20.804;2024-01-27T12:46:18;101017.77;;;2.77;100.00
75536;BME280;64119;52.070;20.804;2024-01-27T12:48:46;101025.30;;;2.79;100.00
75536;BME280;64119;52.070;20.804;2024-01-27T12:51:14;101032.89;;;2.80;100.00
75536;BME280;64119;52.070;20.804;2024-01-27T12:53:43;101035.98;;;2.81;100.00